Terminal Aerodrome Forecast
Issued by NWS

Home | Current Version | Previous Version | Text Only | Print | Product List | Glossary On
Versions: 1 2 3 4 5 6 7 8 9 10 11 12
000
FTUS41 KCAR 262331
TAFPQI
TAF
KPQI 262331Z 2700/2724 25009G16KT 6SM -RA BKN025 OVC050
     FM270200 24005KT 6SM -RASN BR OVC015
     FM270600 29004KT P6SM -SHSN OVC025
     FM271200 33008KT P6SM BKN035
      AMD LTD TO CLD VIS AND WIND=

USA.gov is the U.S. government's official web portal to all federal, state and local government web resources and services.